Terminal Aerodrome Forecast
Issued by NWS Omaha/Valley, NE

Home | Current Version | Previous Version | Graphics & Text | Print | Product List | Glossary On
Versions: 1 2 3 4 5 6 7 8 9 10 11 12 13 14 15 16 17 18 19 20 21 22 23 24 25 26 27 28 29 30 31 32 33 34 35 36 37
730
FTUS43 KOAX 191458 AAA
TAFOFK
TAF AMD
KOFK 191458Z 1915/2012 35016KT 4SM -SN BR OVC009
     FM191700 36013KT P6SM OVC015 PROB30 2000/2006 4SM -SN OVC003
     FM200600 36010KT P6SM OVC010 PROB30 2006/2012 2SM -SN OVC003=

USA.gov is the U.S. government's official web portal to all federal, state and local government web resources and services.